Terminal Aerodrome Forecast
Issued by NWS

Home | Current Version | Previous Version | Text Only | Print | Product List | Glossary On
Versions: 1 2 3 4 5 6 7 8 9 10 11 12 13 14 15 16 17
000
FTAK31 PAJN 300500
TAFAYA
TAF
PAYA 300520Z 3006/3106 11006KT P6SM VCSH SCT030 OVC060
     FM300900 VRB04KT P6SM -SHRA BCFG SCT005 SCT025 BKN050
     FM301800 11005KT P6SM VCSH SCT015 SCT025 OVC050
     FM302100 VRB04KT P6SM BKN050
     FM310300 VRB03KT P6SM SCT050 BKN100
      AMD LTD TO CLD VIS AND WIND 3006/3010=

USA.gov is the U.S. government's official web portal to all federal, state and local government web resources and services.